sensor_id;sensor_type;location;lat;lon;timestamp;pressure;altitude;pressure_sealevel;temperature;humidity
4133;BME280;2080;51.038;7.008;2023-11-19T00:00:09;46346.88;;;-142.53;80.97
4133;BME280;2080;51.038;7.008;2023-11-19T00:02:38;46387.31;;;-142.53;80.62
4133;BME280;2080;51.038;7.008;2023-11-19T00:05:04;46366.13;;;-142.53;81.15
4133;BME280;2080;51.038;7.008;2023-11-19T00:07:36;46408.50;;;-142.53;83.03
4133;BME280;2080;51.038;7.008;2023-11-19T00:10:02;46373.84;;;-142.53;81.65
4133;BME280;2080;51.038;7.008;2023-11-19T00:12:32;46371.91;;;-142.53;81.37
4133;BME280;2080;51.038;7.008;2023-11-19T00:14:57;47070.88;;;-142.53;83.78
4133;BME280;2080;51.038;7.008;2023-11-19T00:17:25;46420.06;;;-142.53;82.52
4133;BME280;2080;51.038;7.008;2023-11-19T00:19:53;46406.56;;;-142.53;83.11
4133;BME280;2080;51.038;7.008;2023-11-19T00:22:21;46435.44;;;-142.53;83.77
4133;BME280;2080;51.038;7.008;2023-11-19T00:24:47;46435.44;;;-142.53;83.56
4133;BME280;2080;51.038;7.008;2023-11-19T00:27:12;46400.78;;;-142.53;83.34
4133;BME280;2080;51.038;7.008;2023-11-19T00:29:38;46323.78;;;-142.53;83.69
4133;BME280;2080;51.038;7.008;2023-11-19T00:32:04;46408.50;;;-142.53;83.04
4133;BME280;2080;51.038;7.008;2023-11-19T00:34:32;46439.31;;;-142.53;82.23
4133;BME280;2080;51.038;7.008;2023-11-19T00:36:58;46239.06;;;-142.53;81.41
4133;BME280;2080;51.038;7.008;2023-11-19T00:39:23;46373.84;;;-142.53;80.67
4133;BME280;2080;51.038;7.008;2023-11-19T00:41:48;46381.53;;;-142.53;80.42
4133;BME280;2080;51.038;7.008;2023-11-19T00:44:14;46385.41;;;-142.53;79.89
4133;BME280;2080;51.038;7.008;2023-11-19T00:46:39;46385.41;;;-142.53;80.37
4133;BME280;2080;51.038;7.008;2023-11-19T00:49:05;46385.41;;;-142.53;79.97
4133;BME280;2080;51.038;7.008;2023-11-19T00:51:33;46366.13;;;-142.53;79.80
4133;BME280;2080;51.038;7.008;2023-11-19T00:53:59;46389.25;;;-142.53;80.04
4133;BME280;2080;51.038;7.008;2023-11-19T00:56:26;46356.50;;;-142.53;79.95
4133;BME280;2080;51.038;7.008;2023-11-19T00:58:51;46373.84;;;-142.53;79.59
4133;BME280;2080;51.038;7.008;2023-11-19T01:01:17;46366.13;;;-142.53;79.32
4133;BME280;2080;51.038;7.008;2023-11-19T01:03:44;46343.03;;;-142.53;79.15
4133;BME280;2080;51.038;7.008;2023-11-19T01:06:10;46358.44;;;-142.53;79.69
4133;BME280;2080;51.038;7.008;2023-11-19T01:08:35;46366.13;;;-142.53;79.60
4133;BME280;2080;51.038;7.008;2023-11-19T01:11:03;46352.66;;;-142.53;79.93
4133;BME280;2080;51.038;7.008;2023-11-19T01:13:29;46389.25;;;-142.53;79.95
4133;BME280;2080;51.038;7.008;2023-11-19T01:15:57;46362.28;;;-142.53;81.12
4133;BME280;2080;51.038;7.008;2023-11-19T01:18:27;46393.09;;;-142.53;80.37
4133;BME280;2080;51.038;7.008;2023-11-19T01:20:52;46331.50;;;-142.53;79.62
4133;BME280;2080;51.038;7.008;2023-11-19T01:23:18;46346.88;;;-142.53;79.08
4133;BME280;2080;51.038;7.008;2023-11-19T01:25:43;46373.84;;;-142.53;78.73
4133;BME280;2080;51.038;7.008;2023-11-19T01:28:11;46327.63;;;-142.53;79.43
4133;BME280;2080;51.038;7.008;2023-11-19T01:30:36;46377.69;;;-142.53;79.44
4133;BME280;2080;51.038;7.008;2023-11-19T01:33:02;46412.34;;;-142.53;80.90
4133;BME280;2080;51.038;7.008;2023-11-19T01:35:27;46377.69;;;-142.53;80.20
4133;BME280;2080;51.038;7.008;2023-11-19T01:37:55;46370.00;;;-142.53;80.29
4133;BME280;2080;51.038;7.008;2023-11-19T01:40:22;46393.09;;;-142.53;81.34
4133;BME280;2080;51.038;7.008;2023-11-19T01:42:48;46400.78;;;-142.53;81.08
4133;BME280;2080;51.038;7.008;2023-11-19T01:45:27;46412.34;;;-142.53;80.64
4133;BME280;2080;51.038;7.008;2023-11-19T01:47:54;46423.91;;;-142.53;82.39
4133;BME280;2080;51.038;7.008;2023-11-19T01:50:20;46431.59;;;-142.53;82.68
4133;BME280;2080;51.038;7.008;2023-11-19T01:52:46;46425.81;;;-142.53;82.69
4133;BME280;2080;51.038;7.008;2023-11-19T01:55:12;46466.25;;;-142.53;83.40
4133;BME280;2080;51.038;7.008;2023-11-19T01:57:38;46435.44;;;-142.53;82.57
4133;BME280;2080;51.038;7.008;2023-11-19T02:00:06;46435.44;;;-142.53;82.03
4133;BME280;2080;51.038;7.008;2023-11-19T02:02:36;46291.06;;;-142.53;83.17
4133;BME280;2080;51.038;7.008;2023-11-19T02:05:02;46418.13;;;-142.53;81.81
4133;BME280;2080;51.038;7.008;2023-11-19T02:07:30;46431.59;;;-142.53;82.00
4133;BME280;2080;51.038;7.008;2023-11-19T02:09:58;46447.00;;;-142.53;81.49
4133;BME280;2080;51.038;7.008;2023-11-19T02:12:28;46427.75;;;-142.53;80.82
4133;BME280;2080;51.038;7.008;2023-11-19T02:14:54;46504.75;;;-142.53;84.27
4133;BME280;2080;51.038;7.008;2023-11-19T02:17:27;46539.41;;;-142.53;83.34
4133;BME280;2080;51.038;7.008;2023-11-19T02:19:52;46450.84;;;-142.53;82.03
4133;BME280;2080;51.038;7.008;2023-11-19T02:22:18;46435.44;;;-142.53;81.51
4133;BME280;2080;51.038;7.008;2023-11-19T02:24:45;46456.63;;;-142.53;81.37
4133;BME280;2080;51.038;7.008;2023-11-19T02:27:18;46447.00;;;-142.53;82.03
4133;BME280;2080;51.038;7.008;2023-11-19T02:29:47;46466.25;;;-142.53;81.68
4133;BME280;2080;51.038;7.008;2023-11-19T02:32:12;46497.06;;;-142.53;82.04
4133;BME280;2080;51.038;7.008;2023-11-19T02:34:40;46427.75;;;-142.53;80.86
4133;BME280;2080;51.038;7.008;2023-11-19T02:37:06;46441.22;;;-142.53;80.89
4133;BME280;2080;51.038;7.008;2023-11-19T02:39:35;46441.22;;;-142.53;82.36
4133;BME280;2080;51.038;7.008;2023-11-19T02:42:03;46470.09;;;-142.53;82.43
4133;BME280;2080;51.038;7.008;2023-11-19T02:44:28;46470.09;;;-142.53;82.03
4133;BME280;2080;51.038;7.008;2023-11-19T02:46:55;46487.44;;;-142.53;81.83
4133;BME280;2080;51.038;7.008;2023-11-19T02:49:24;46495.13;;;-142.53;83.05
4133;BME280;2080;51.038;7.008;2023-11-19T02:51:49;46539.41;;;-142.53;83.39
4133;BME280;2080;51.038;7.008;2023-11-19T02:54:17;46495.13;;;-142.53;83.48
4133;BME280;2080;51.038;7.008;2023-11-19T02:56:43;46531.72;;;-142.53;83.32
4133;BME280;2080;51.038;7.008;2023-11-19T02:59:08;46524.00;;;-142.53;82.89
4133;BME280;2080;51.038;7.008;2023-11-19T03:01:43;46497.06;;;-142.53;82.77
4133;BME280;2080;51.038;7.008;2023-11-19T03:04:13;46520.16;;;-142.53;83.06
4133;BME280;2080;51.038;7.008;2023-11-19T03:06:45;46547.13;;;-142.53;83.25
4133;BME280;2080;51.038;7.008;2023-11-19T03:09:15;46525.94;;;-142.53;84.09
4133;BME280;2080;51.038;7.008;2023-11-19T03:11:40;46576.00;;;-142.53;84.87
4133;BME280;2080;51.038;7.008;2023-11-19T03:14:06;46574.06;;;-142.53;85.65
4133;BME280;2080;51.038;7.008;2023-11-19T03:16:35;46543.28;;;-142.53;83.48
4133;BME280;2080;51.038;7.008;2023-11-19T03:19:00;46527.88;;;-142.53;83.59
4133;BME280;2080;51.038;7.008;2023-11-19T03:21:29;46545.19;;;-142.53;84.78
4133;BME280;2080;51.038;7.008;2023-11-19T03:23:54;46543.28;;;-142.53;84.29
4133;BME280;2080;51.038;7.008;2023-11-19T03:26:21;46595.25;;;-142.53;85.39
4133;BME280;2080;51.038;7.008;2023-11-19T03:28:47;46654.94;;;-142.53;87.28
4133;BME280;2080;51.038;7.008;2023-11-19T03:31:12;46620.28;;;-142.53;86.21
4133;BME280;2080;51.038;7.008;2023-11-19T03:33:38;46604.88;;;-142.53;84.92
4133;BME280;2080;51.038;7.008;2023-11-19T03:36:03;46610.66;;;-142.53;85.06
4133;BME280;2080;51.038;7.008;2023-11-19T03:38:29;46547.13;;;-142.53;84.73
4133;BME280;2080;51.038;7.008;2023-11-19T03:40:57;46585.63;;;-142.53;84.91
4133;BME280;2080;51.038;7.008;2023-11-19T03:43:22;46597.19;;;-142.53;84.68
4133;BME280;2080;51.038;7.008;2023-11-19T03:45:53;46678.03;;;-142.53;87.05
4133;BME280;2080;51.038;7.008;2023-11-19T03:48:18;46762.78;;;-142.53;87.33
4133;BME280;2080;51.038;7.008;2023-11-19T03:50:44;46705.00;;;-142.53;87.47
4133;BME280;2080;51.038;7.008;2023-11-19T03:53:09;47055.47;;;-142.53;91.09
4133;BME280;2080;51.038;7.008;2023-11-19T03:55:37;47294.25;;;-142.53;90.76
4133;BME280;2080;51.038;7.008;2023-11-19T03:58:02;46939.91;;;-142.53;87.33
4133;BME280;2080;51.038;7.008;2023-11-19T04:00:27;46868.66;;;-142.53;86.95
4133;BME280;2080;51.038;7.008;2023-11-19T04:02:53;46762.78;;;-142.53;84.79
4133;BME280;2080;51.038;7.008;2023-11-19T04:05:18;46639.53;;;-142.53;83.29
4133;BME280;2080;51.038;7.008;2023-11-19T04:07:46;46620.28;;;-142.53;82.40
4133;BME280;2080;51.038;7.008;2023-11-19T04:10:12;46570.22;;;-142.53;81.41
4133;BME280;2080;51.038;7.008;2023-11-19T04:12:39;46547.13;;;-142.53;80.54
4133;BME280;2080;51.038;7.008;2023-11-19T04:15:08;46497.06;;;-142.53;81.77
4133;BME280;2080;51.038;7.008;2023-11-19T04:17:34;46552.91;;;-142.53;82.47
4133;BME280;2080;51.038;7.008;2023-11-19T04:20:01;46554.81;;;-142.53;81.95
4133;BME280;2080;51.038;7.008;2023-11-19T04:22:29;46504.75;;;-142.53;81.05
4133;BME280;2080;51.038;7.008;2023-11-19T04:24:54;46635.69;;;-142.53;85.32
4133;BME280;2080;51.038;7.008;2023-11-19T04:27:20;46643.38;;;-142.53;84.68
4133;BME280;2080;51.038;7.008;2023-11-19T04:29:45;46606.81;;;-142.53;83.97
4133;BME280;2080;51.038;7.008;2023-11-19T04:32:12;46597.19;;;-142.53;83.94
4133;BME280;2080;51.038;7.008;2023-11-19T04:34:37;46585.63;;;-142.53;83.60
4133;BME280;2080;51.038;7.008;2023-11-19T04:37:03;46539.41;;;-142.53;82.84
4133;BME280;2080;51.038;7.008;2023-11-19T04:39:29;46653.03;;;-142.53;85.12
4133;BME280;2080;51.038;7.008;2023-11-19T04:41:55;46591.41;;;-142.53;83.64
4133;BME280;2080;51.038;7.008;2023-11-19T04:44:21;46672.28;;;-142.53;85.78
4133;BME280;2080;51.038;7.008;2023-11-19T04:46:48;46599.09;;;-142.53;82.75
4133;BME280;2080;51.038;7.008;2023-11-19T04:49:14;46616.44;;;-142.53;85.37
4133;BME280;2080;51.038;7.008;2023-11-19T04:51:44;46585.63;;;-142.53;82.95
4133;BME280;2080;51.038;7.008;2023-11-19T04:54:11;46558.66;;;-142.53;82.37
4133;BME280;2080;51.038;7.008;2023-11-19T04:56:37;46512.47;;;-142.53;82.02
4133;BME280;2080;51.038;7.008;2023-11-19T04:59:05;46554.81;;;-142.53;83.56
4133;BME280;2080;51.038;7.008;2023-11-19T05:01:32;46516.31;;;-142.53;83.31
4133;BME280;2080;51.038;7.008;2023-11-19T05:04:00;46462.41;;;-142.53;80.02
4133;BME280;2080;51.038;7.008;2023-11-19T05:06:27;46524.00;;;-142.53;83.28
4133;BME280;2080;51.038;7.008;2023-11-19T05:08:54;46514.38;;;-142.53;81.21
4133;BME280;2080;51.038;7.008;2023-11-19T05:11:20;46466.25;;;-142.53;80.27
4133;BME280;2080;51.038;7.008;2023-11-19T05:13:45;46508.63;;;-142.53;81.76
4133;BME280;2080;51.038;7.008;2023-11-19T05:16:16;46506.69;;;-142.53;81.13
4133;BME280;2080;51.038;7.008;2023-11-19T05:18:42;46500.91;;;-142.53;82.35
4133;BME280;2080;51.038;7.008;2023-11-19T05:21:10;46458.56;;;-142.53;80.82
4133;BME280;2080;51.038;7.008;2023-11-19T05:23:35;46497.06;;;-142.53;82.24
4133;BME280;2080;51.038;7.008;2023-11-19T05:26:03;46525.94;;;-142.53;82.74
4133;BME280;2080;51.038;7.008;2023-11-19T05:28:29;46529.78;;;-142.53;83.48
4133;BME280;2080;51.038;7.008;2023-11-19T05:30:54;46477.81;;;-142.53;80.90
4133;BME280;2080;51.038;7.008;2023-11-19T05:33:22;46489.34;;;-142.53;83.96
4133;BME280;2080;51.038;7.008;2023-11-19T05:35:50;46516.31;;;-142.53;83.15
4133;BME280;2080;51.038;7.008;2023-11-19T05:38:16;46468.19;;;-142.53;81.86
4133;BME280;2080;51.038;7.008;2023-11-19T05:40:41;46443.16;;;-142.53;80.92
4133;BME280;2080;51.038;7.008;2023-11-19T05:43:07;46412.34;;;-142.53;80.50
4133;BME280;2080;51.038;7.008;2023-11-19T05:45:32;46427.75;;;-142.53;81.02
4133;BME280;2080;51.038;7.008;2023-11-19T05:47:58;46473.97;;;-142.53;82.93
4133;BME280;2080;51.038;7.008;2023-11-19T05:50:28;46400.78;;;-142.53;80.40
4133;BME280;2080;51.038;7.008;2023-11-19T05:52:56;46402.72;;;-142.53;80.23
4133;BME280;2080;51.038;7.008;2023-11-19T05:55:21;46400.78;;;-142.53;78.54
4133;BME280;2080;51.038;7.008;2023-11-19T05:57:48;46350.75;;;-142.53;77.91
4133;BME280;2080;51.038;7.008;2023-11-19T06:00:14;46346.88;;;-142.53;77.29
4133;BME280;2080;51.038;7.008;2023-11-19T06:02:40;46273.72;;;-142.53;78.16
4133;BME280;2080;51.038;7.008;2023-11-19T06:05:08;46402.72;;;-142.53;81.99
4133;BME280;2080;51.038;7.008;2023-11-19T06:07:35;46400.78;;;-142.53;81.43
4133;BME280;2080;51.038;7.008;2023-11-19T06:10:04;46389.25;;;-142.53;80.68
4133;BME280;2080;51.038;7.008;2023-11-19T06:12:32;46404.66;;;-142.53;81.21
4133;BME280;2080;51.038;7.008;2023-11-19T06:14:59;46377.69;;;-142.53;80.39
4133;BME280;2080;51.038;7.008;2023-11-19T06:17:25;46379.63;;;-142.53;78.80
4133;BME280;2080;51.038;7.008;2023-11-19T06:19:50;46368.06;;;-142.53;79.61
4133;BME280;2080;51.038;7.008;2023-11-19T06:22:16;46366.13;;;-142.53;80.40
4133;BME280;2080;51.038;7.008;2023-11-19T06:24:43;46366.13;;;-142.53;79.85
4133;BME280;2080;51.038;7.008;2023-11-19T06:27:09;46373.84;;;-142.53;80.61
4133;BME280;2080;51.038;7.008;2023-11-19T06:29:38;46350.75;;;-142.53;80.16
4133;BME280;2080;51.038;7.008;2023-11-19T06:32:06;46343.03;;;-142.53;79.12
4133;BME280;2080;51.038;7.008;2023-11-19T06:34:31;46331.50;;;-142.53;78.29
4133;BME280;2080;51.038;7.008;2023-11-19T06:36:58;46352.66;;;-142.53;78.98
4133;BME280;2080;51.038;7.008;2023-11-19T06:39:23;46312.22;;;-142.53;76.79
4133;BME280;2080;51.038;7.008;2023-11-19T06:41:49;46258.31;;;-142.53;73.93
4133;BME280;2080;51.038;7.008;2023-11-19T06:44:14;46337.25;;;-142.53;78.92
4133;BME280;2080;51.038;7.008;2023-11-19T06:46:43;46331.50;;;-142.53;82.38
4133;BME280;2080;51.038;7.008;2023-11-19T06:49:08;46354.59;;;-142.53;79.24
4133;BME280;2080;51.038;7.008;2023-11-19T06:51:34;46319.94;;;-142.53;77.18
4133;BME280;2080;51.038;7.008;2023-11-19T06:53:59;46325.72;;;-142.53;79.40
4133;BME280;2080;51.038;7.008;2023-11-19T06:56:25;46335.34;;;-142.53;78.00
4133;BME280;2080;51.038;7.008;2023-11-19T06:58:51;46331.50;;;-142.53;78.88
4133;BME280;2080;51.038;7.008;2023-11-19T07:01:17;46292.97;;;-142.53;78.54
4133;BME280;2080;51.038;7.008;2023-11-19T07:03:45;46273.72;;;-142.53;78.65
4133;BME280;2080;51.038;7.008;2023-11-19T07:06:11;46333.41;;;-142.53;80.05
4133;BME280;2080;51.038;7.008;2023-11-19T07:08:38;46318.00;;;-142.53;78.15
4133;BME280;2080;51.038;7.008;2023-11-19T07:11:04;46339.19;;;-142.53;79.08
4133;BME280;2080;51.038;7.008;2023-11-19T07:13:34;46269.88;;;-142.53;76.93
4133;BME280;2080;51.038;7.008;2023-11-19T07:15:59;46323.78;;;-142.53;79.80
4133;BME280;2080;51.038;7.008;2023-11-19T07:18:25;46277.59;;;-142.53;77.41
4133;BME280;2080;51.038;7.008;2023-11-19T07:20:52;46302.59;;;-142.53;79.88
4133;BME280;2080;51.038;7.008;2023-11-19T07:23:22;46306.47;;;-142.53;79.52
4133;BME280;2080;51.038;7.008;2023-11-19T07:25:48;46262.19;;;-142.53;79.39
4133;BME280;2080;51.038;7.008;2023-11-19T07:28:18;46319.94;;;-142.53;78.46
4133;BME280;2080;51.038;7.008;2023-11-19T07:30:44;46285.28;;;-142.53;77.72
4133;BME280;2080;51.038;7.008;2023-11-19T07:33:12;46289.13;;;-142.53;78.27
4133;BME280;2080;51.038;7.008;2023-11-19T07:35:38;46269.88;;;-142.53;74.68
4133;BME280;2080;51.038;7.008;2023-11-19T07:38:04;46246.78;;;-142.53;74.91
4133;BME280;2080;51.038;7.008;2023-11-19T07:40:30;46202.50;;;-142.53;76.73
4133;BME280;2080;51.038;7.008;2023-11-19T07:42:55;46269.88;;;-142.53;77.74
4133;BME280;2080;51.038;7.008;2023-11-19T07:45:26;46312.22;;;-142.53;78.32
4133;BME280;2080;51.038;7.008;2023-11-19T07:47:54;46294.91;;;-142.53;77.14
4133;BME280;2080;51.038;7.008;2023-11-19T07:50:20;46291.06;;;-142.53;79.23
4133;BME280;2080;51.038;7.008;2023-11-19T07:52:47;46273.72;;;-142.53;77.26
4133;BME280;2080;51.038;7.008;2023-11-19T07:55:13;46277.59;;;-142.53;76.50
4133;BME280;2080;51.038;7.008;2023-11-19T07:57:40;46279.50;;;-142.53;78.49
4133;BME280;2080;51.038;7.008;2023-11-19T08:00:09;46277.59;;;-142.53;74.36
4133;BME280;2080;51.038;7.008;2023-11-19T08:02:37;46242.94;;;-142.53;73.04
4133;BME280;2080;51.038;7.008;2023-11-19T08:05:03;46219.81;;;-142.53;74.19
4133;BME280;2080;51.038;7.008;2023-11-19T08:07:28;46267.94;;;-142.53;74.13
4133;BME280;2080;51.038;7.008;2023-11-19T08:09:56;46235.22;;;-142.53;75.24
4133;BME280;2080;51.038;7.008;2023-11-19T08:12:22;46227.53;;;-142.53;75.59
4133;BME280;2080;51.038;7.008;2023-11-19T08:14:49;46258.31;;;-142.53;73.89
4133;BME280;2080;51.038;7.008;2023-11-19T08:17:15;46215.97;;;-142.53;72.82
4133;BME280;2080;51.038;7.008;2023-11-19T08:19:41;46210.19;;;-142.53;71.80
4133;BME280;2080;51.038;7.008;2023-11-19T08:22:06;46154.38;;;-142.53;69.47
4133;BME280;2080;51.038;7.008;2023-11-19T08:24:32;46239.06;;;-142.53;72.24
4133;BME280;2080;51.038;7.008;2023-11-19T08:26:57;46237.16;;;-142.53;71.25
4133;BME280;2080;51.038;7.008;2023-11-19T08:29:25;46204.41;;;-142.53;69.79
4133;BME280;2080;51.038;7.008;2023-11-19T08:31:53;46223.69;;;-142.53;70.45
4133;BME280;2080;51.038;7.008;2023-11-19T08:34:18;46219.81;;;-142.53;73.30
4133;BME280;2080;51.038;7.008;2023-11-19T08:36:50;46200.56;;;-142.53;70.39
4133;BME280;2080;51.038;7.008;2023-11-19T08:39:15;46217.91;;;-142.53;73.08
4133;BME280;2080;51.038;7.008;2023-11-19T08:41:40;46208.28;;;-142.53;73.19
4133;BME280;2080;51.038;7.008;2023-11-19T08:44:07;46235.22;;;-142.53;73.14
4133;BME280;2080;51.038;7.008;2023-11-19T08:46:32;46219.81;;;-142.53;70.81
4133;BME280;2080;51.038;7.008;2023-11-19T08:48:57;46208.28;;;-142.53;70.73
4133;BME280;2080;51.038;7.008;2023-11-19T08:51:23;46225.59;;;-142.53;71.08
4133;BME280;2080;51.038;7.008;2023-11-19T08:53:50;46198.66;;;-142.53;68.34
4133;BME280;2080;51.038;7.008;2023-11-19T08:56:18;46202.50;;;-142.53;72.79
4133;BME280;2080;51.038;7.008;2023-11-19T08:58:43;46208.28;;;-142.53;71.42
4133;BME280;2080;51.038;7.008;2023-11-19T09:01:08;46192.88;;;-142.53;68.55
4133;BME280;2080;51.038;7.008;2023-11-19T09:03:35;46162.06;;;-142.53;67.73
4133;BME280;2080;51.038;7.008;2023-11-19T09:06:02;46138.97;;;-142.53;67.30
4133;BME280;2080;51.038;7.008;2023-11-19T09:08:28;46115.88;;;-142.53;67.93
4133;BME280;2080;51.038;7.008;2023-11-19T09:10:53;46162.06;;;-142.53;68.25
4133;BME280;2080;51.038;7.008;2023-11-19T09:13:18;46104.31;;;-142.53;69.12
4133;BME280;2080;51.038;7.008;2023-11-19T09:15:44;46185.16;;;-142.53;68.23
4133;BME280;2080;51.038;7.008;2023-11-19T09:18:09;46194.81;;;-142.53;66.49
4133;BME280;2080;51.038;7.008;2023-11-19T09:20:35;46181.31;;;-142.53;67.29
4133;BME280;2080;51.038;7.008;2023-11-19T09:23:04;46200.56;;;-142.53;67.60
4133;BME280;2080;51.038;7.008;2023-11-19T09:25:33;46164.00;;;-142.53;68.17
4133;BME280;2080;51.038;7.008;2023-11-19T09:28:00;46292.97;;;-142.53;69.21
4133;BME280;2080;51.038;7.008;2023-11-19T09:30:28;46183.25;;;-142.53;66.13
4133;BME280;2080;51.038;7.008;2023-11-19T09:33:01;46175.53;;;-142.53;66.89
4133;BME280;2080;51.038;7.008;2023-11-19T09:35:27;46171.69;;;-142.53;67.63
4133;BME280;2080;51.038;7.008;2023-11-19T09:37:58;46177.47;;;-142.53;68.46
4133;BME280;2080;51.038;7.008;2023-11-19T09:40:27;46073.50;;;-142.53;66.39
4133;BME280;2080;51.038;7.008;2023-11-19T09:42:53;46138.97;;;-142.53;65.47
4133;BME280;2080;51.038;7.008;2023-11-19T09:45:21;46133.19;;;-142.53;66.29
4133;BME280;2080;51.038;7.008;2023-11-19T09:47:46;46165.91;;;-142.53;66.37
4133;BME280;2080;51.038;7.008;2023-11-19T09:50:19;46173.63;;;-142.53;66.84
4133;BME280;2080;51.038;7.008;2023-11-19T09:52:45;46131.28;;;-142.53;65.21
4133;BME280;2080;51.038;7.008;2023-11-19T09:55:11;46154.38;;;-142.53;63.97
4133;BME280;2080;51.038;7.008;2023-11-19T09:57:38;46138.97;;;-142.53;64.66
4133;BME280;2080;51.038;7.008;2023-11-19T10:00:06;46144.75;;;-142.53;65.33
4133;BME280;2080;51.038;7.008;2023-11-19T10:02:33;46152.44;;;-142.53;64.50
4133;BME280;2080;51.038;7.008;2023-11-19T10:05:06;46131.28;;;-142.53;63.60
4133;BME280;2080;51.038;7.008;2023-11-19T10:07:33;46154.38;;;-142.53;63.13
4133;BME280;2080;51.038;7.008;2023-11-19T10:10:04;46144.75;;;-142.53;63.12
4133;BME280;2080;51.038;7.008;2023-11-19T10:12:29;46158.22;;;-142.53;60.57
4133;BME280;2080;51.038;7.008;2023-11-19T10:14:59;46156.28;;;-142.53;64.07
4133;BME280;2080;51.038;7.008;2023-11-19T10:17:33;46110.09;;;-142.53;61.20
4133;BME280;2080;51.038;7.008;2023-11-19T10:20:02;46108.16;;;-142.53;62.99
4133;BME280;2080;51.038;7.008;2023-11-19T10:22:28;46146.66;;;-142.53;62.03
4133;BME280;2080;51.038;7.008;2023-11-19T10:24:54;46129.34;;;-142.53;61.07
4133;BME280;2080;51.038;7.008;2023-11-19T10:27:19;46208.28;;;-142.53;62.03
4133;BME280;2080;51.038;7.008;2023-11-19T10:29:45;46138.97;;;-142.53;59.99
4133;BME280;2080;51.038;7.008;2023-11-19T10:32:12;46131.28;;;-142.53;61.85
4133;BME280;2080;51.038;7.008;2023-11-19T10:34:41;46112.00;;;-142.53;63.21
4133;BME280;2080;51.038;7.008;2023-11-19T10:37:07;46131.28;;;-142.53;61.98
4133;BME280;2080;51.038;7.008;2023-11-19T10:39:53;46138.97;;;-142.53;62.84
4133;BME280;2080;51.038;7.008;2023-11-19T10:42:23;46144.75;;;-142.53;62.32
4133;BME280;2080;51.038;7.008;2023-11-19T10:44:48;46150.53;;;-142.53;64.38
4133;BME280;2080;51.038;7.008;2023-11-19T10:47:18;46150.53;;;-142.53;64.57
4133;BME280;2080;51.038;7.008;2023-11-19T10:49:45;46119.72;;;-142.53;62.04
4133;BME280;2080;51.038;7.008;2023-11-19T10:52:23;46104.31;;;-142.53;62.15
4133;BME280;2080;51.038;7.008;2023-11-19T10:54:50;46106.25;;;-142.53;59.15
4133;BME280;2080;51.038;7.008;2023-11-19T10:57:30;46110.09;;;-142.53;60.18
4133;BME280;2080;51.038;7.008;2023-11-19T11:00:02;46127.41;;;-142.53;59.77
4133;BME280;2080;51.038;7.008;2023-11-19T11:02:30;46129.34;;;-142.53;61.21
4133;BME280;2080;51.038;7.008;2023-11-19T11:05:03;46077.38;;;-142.53;59.06
4133;BME280;2080;51.038;7.008;2023-11-19T11:07:31;46131.28;;;-142.53;56.44
4133;BME280;2080;51.038;7.008;2023-11-19T11:09:56;46115.88;;;-142.53;57.61
4133;BME280;2080;51.038;7.008;2023-11-19T11:12:23;46108.16;;;-142.53;56.87
4133;BME280;2080;51.038;7.008;2023-11-19T11:14:50;46081.22;;;-142.53;59.86
4133;BME280;2080;51.038;7.008;2023-11-19T11:17:20;46104.31;;;-142.53;56.88
4133;BME280;2080;51.038;7.008;2023-11-19T11:19:49;46106.25;;;-142.53;58.84
4133;BME280;2080;51.038;7.008;2023-11-19T11:22:15;46073.50;;;-142.53;57.44
4133;BME280;2080;51.038;7.008;2023-11-19T11:30:39;46150.53;;;-142.53;64.71
4133;BME280;2080;51.038;7.008;2023-11-19T11:33:32;46061.97;;;-142.53;64.61
4133;BME280;2080;51.038;7.008;2023-11-19T11:36:26;46123.56;;;-142.53;63.04
4133;BME280;2080;51.038;7.008;2023-11-19T11:38:58;46137.03;;;-142.53;63.90
4133;BME280;2080;51.038;7.008;2023-11-19T11:41:25;46117.78;;;-142.53;62.22
4133;BME280;2080;51.038;7.008;2023-11-19T11:43:54;46129.34;;;-142.53;63.56
4133;BME280;2080;51.038;7.008;2023-11-19T11:49:06;46127.41;;;-142.53;63.24
4133;BME280;2080;51.038;7.008;2023-11-19T11:57:10;46102.38;;;-142.53;58.65
4133;BME280;2080;51.038;7.008;2023-11-19T12:02:11;46104.31;;;-142.53;57.97
4133;BME280;2080;51.038;7.008;2023-11-19T12:04:40;46081.22;;;-142.53;57.01
4133;BME280;2080;51.038;7.008;2023-11-19T12:07:12;46100.47;;;-142.53;57.80
4133;BME280;2080;51.038;7.008;2023-11-19T12:09:40;46140.91;;;-142.53;57.87
4133;BME280;2080;51.038;7.008;2023-11-19T12:12:26;46127.41;;;-142.53;57.78
4133;BME280;2080;51.038;7.008;2023-11-19T12:20:05;46112.00;;;-142.53;54.91
4133;BME280;2080;51.038;7.008;2023-11-19T12:22:40;46092.75;;;-142.53;57.24
4133;BME280;2080;51.038;7.008;2023-11-19T12:25:07;46104.31;;;-142.53;56.68
4133;BME280;2080;51.038;7.008;2023-11-19T12:27:37;46108.16;;;-142.53;59.25
4133;BME280;2080;51.038;7.008;2023-11-19T12:30:05;46133.19;;;-142.53;59.56
4133;BME280;2080;51.038;7.008;2023-11-19T12:32:41;46019.63;;;-142.53;58.46
4133;BME280;2080;51.038;7.008;2023-11-19T12:35:10;46061.97;;;-142.53;59.04
4133;BME280;2080;51.038;7.008;2023-11-19T12:37:45;46108.16;;;-142.53;58.71
4133;BME280;2080;51.038;7.008;2023-11-19T12:40:18;46094.69;;;-142.53;58.51
4133;BME280;2080;51.038;7.008;2023-11-19T12:42:48;46085.06;;;-142.53;58.72
4133;BME280;2080;51.038;7.008;2023-11-19T12:45:18;46061.97;;;-142.53;59.30
4133;BME280;2080;51.038;7.008;2023-11-19T12:47:46;46144.75;;;-142.53;57.20
4133;BME280;2080;51.038;7.008;2023-11-19T12:50:18;46004.22;;;-142.53;58.11
4133;BME280;2080;51.038;7.008;2023-11-19T12:52:58;46104.31;;;-142.53;59.85
4133;BME280;2080;51.038;7.008;2023-11-19T12:55:33;46108.16;;;-142.53;59.52
4133;BME280;2080;51.038;7.008;2023-11-19T12:58:00;46096.63;;;-142.53;58.01
4133;BME280;2080;51.038;7.008;2023-11-19T13:00:26;46329.56;;;-142.53;59.59
4133;BME280;2080;51.038;7.008;2023-11-19T13:02:56;46115.88;;;-142.53;59.82
4133;BME280;2080;51.038;7.008;2023-11-19T13:07:58;46123.56;;;-142.53;58.94
4133;BME280;2080;51.038;7.008;2023-11-19T13:10:24;46115.88;;;-142.53;58.15
4133;BME280;2080;51.038;7.008;2023-11-19T13:13:08;46115.88;;;-142.53;58.39
4133;BME280;2080;51.038;7.008;2023-11-19T13:15:34;46104.31;;;-142.53;58.21
4133;BME280;2080;51.038;7.008;2023-11-19T13:18:02;45881.00;;;-142.53;59.96
4133;BME280;2080;51.038;7.008;2023-11-19T13:20:28;46133.19;;;-142.53;58.95
4133;BME280;2080;51.038;7.008;2023-11-19T13:22:58;46135.13;;;-142.53;64.30
4133;BME280;2080;51.038;7.008;2023-11-19T13:25:27;46123.56;;;-142.53;60.15